Kidron, Ohio
Current Conditions -  °F | °C
As of 8:56 AM on Thursday 23 Oct 2014 (Local Time) from KBJJ Reporting Station
Clear Clear  
Wind Chill: 45°   Ceiling: Unl
Heat Index: 48°   Visibility: 10mi
Dew Point: 43°   Wind: 7mph
Humidity: 83%   Direction: 330°NNW
Pressure: 30.21"   Gusts: NA
Location:  40.74°N, 81.74°W
Report Text: KBJJ 231256Z AUTO 33006KT 10SM CLR 09/06 A3021 RMK AO2 SLP234 T00890061 TSNO
Loading
Personal Weather Stations






























Interactive Weather Map New forecast layout! Learn more

10-Day Weather Forecast

Advertisements
Track Severe Weather on mobile